sensor_id;sensor_type;location;lat;lon;timestamp;temperature;humidity
19242;DHT22;9755;47.790;9.620;2023-03-04T00:01:37;-0.40;99.90
19242;DHT22;9755;47.790;9.620;2023-03-04T00:04:04;-0.40;99.90
19242;DHT22;9755;47.790;9.620;2023-03-04T00:06:31;-0.40;99.90
19242;DHT22;9755;47.790;9.620;2023-03-04T00:08:58;-0.60;99.90
19242;DHT22;9755;47.790;9.620;2023-03-04T00:11:27;-0.90;99.90
19242;DHT22;9755;47.790;9.620;2023-03-04T00:13:54;-1.00;99.90
19242;DHT22;9755;47.790;9.620;2023-03-04T00:16:21;-1.10;99.90
19242;DHT22;9755;47.790;9.620;2023-03-04T00:18:51;-1.00;99.90
19242;DHT22;9755;47.790;9.620;2023-03-04T00:21:18;-1.00;99.90
19242;DHT22;9755;47.790;9.620;2023-03-04T00:23:46;-1.10;99.90
19242;DHT22;9755;47.790;9.620;2023-03-04T00:26:13;-1.00;99.90
19242;DHT22;9755;47.790;9.620;2023-03-04T00:28:41;-0.70;99.90
19242;DHT22;9755;47.790;9.620;2023-03-04T00:31:10;-0.50;99.90
19242;DHT22;9755;47.790;9.620;2023-03-04T00:33:37;-0.70;99.90
19242;DHT22;9755;47.790;9.620;2023-03-04T00:36:05;-1.00;99.90
19242;DHT22;9755;47.790;9.620;2023-03-04T00:38:33;-1.10;99.90
19242;DHT22;9755;47.790;9.620;2023-03-04T00:41:00;-1.30;99.90
19242;DHT22;9755;47.790;9.620;2023-03-04T00:43:27;-1.40;99.90
19242;DHT22;9755;47.790;9.620;2023-03-04T00:45:55;-1.10;99.90
19242;DHT22;9755;47.790;9.620;2023-03-04T00:48:22;-1.20;99.90
19242;DHT22;9755;47.790;9.620;2023-03-04T00:50:49;-1.40;99.90
19242;DHT22;9755;47.790;9.620;2023-03-04T00:53:18;-1.50;99.90
19242;DHT22;9755;47.790;9.620;2023-03-04T00:55:45;-1.80;99.90
19242;DHT22;9755;47.790;9.620;2023-03-04T00:58:12;-1.80;99.90
19242;DHT22;9755;47.790;9.620;2023-03-04T01:00:39;-1.80;99.90
19242;DHT22;9755;47.790;9.620;2023-03-04T01:03:08;-1.90;99.90
19242;DHT22;9755;47.790;9.620;2023-03-04T01:05:35;-1.80;99.90
19242;DHT22;9755;47.790;9.620;2023-03-04T01:08:02;-1.60;99.90
19242;DHT22;9755;47.790;9.620;2023-03-04T01:10:30;-1.40;99.90
19242;DHT22;9755;47.790;9.620;2023-03-04T01:12:57;-1.30;99.90
19242;DHT22;9755;47.790;9.620;2023-03-04T01:15:24;-1.20;99.90
19242;DHT22;9755;47.790;9.620;2023-03-04T01:17:52;-1.30;99.90
19242;DHT22;9755;47.790;9.620;2023-03-04T01:20:20;-1.40;99.90
19242;DHT22;9755;47.790;9.620;2023-03-04T01:22:47;-1.50;99.90
19242;DHT22;9755;47.790;9.620;2023-03-04T01:25:14;-1.80;99.90
19242;DHT22;9755;47.790;9.620;2023-03-04T01:27:41;-1.90;99.90
19242;DHT22;9755;47.790;9.620;2023-03-04T01:30:10;-2.00;99.90
19242;DHT22;9755;47.790;9.620;2023-03-04T01:32:37;-1.80;99.90
19242;DHT22;9755;47.790;9.620;2023-03-04T01:35:05;-1.70;99.90
19242;DHT22;9755;47.790;9.620;2023-03-04T01:37:33;-1.70;99.90
19242;DHT22;9755;47.790;9.620;2023-03-04T01:40:00;-1.70;99.90
19242;DHT22;9755;47.790;9.620;2023-03-04T01:42:29;-1.60;99.90
19242;DHT22;9755;47.790;9.620;2023-03-04T01:44:57;-1.70;99.90
19242;DHT22;9755;47.790;9.620;2023-03-04T01:47:27;-1.60;99.90
19242;DHT22;9755;47.790;9.620;2023-03-04T01:49:56;-1.60;99.90
19242;DHT22;9755;47.790;9.620;2023-03-04T01:52:26;-1.80;99.90
19242;DHT22;9755;47.790;9.620;2023-03-04T01:54:55;-1.80;99.90
19242;DHT22;9755;47.790;9.620;2023-03-04T01:57:24;-1.80;99.90
19242;DHT22;9755;47.790;9.620;2023-03-04T02:00:20;-1.80;99.90
19242;DHT22;9755;47.790;9.620;2023-03-04T02:02:49;-1.80;99.90
19242;DHT22;9755;47.790;9.620;2023-03-04T02:05:19;-2.00;99.90
19242;DHT22;9755;47.790;9.620;2023-03-04T02:07:47;-2.30;99.90
19242;DHT22;9755;47.790;9.620;2023-03-04T02:10:16;-2.40;99.90
19242;DHT22;9755;47.790;9.620;2023-03-04T02:12:43;-2.60;99.90
19242;DHT22;9755;47.790;9.620;2023-03-04T02:15:11;-2.60;99.90
19242;DHT22;9755;47.790;9.620;2023-03-04T02:17:38;-2.60;99.90
19242;DHT22;9755;47.790;9.620;2023-03-04T02:20:14;-2.60;99.90
19242;DHT22;9755;47.790;9.620;2023-03-04T02:22:53;-2.70;99.90
19242;DHT22;9755;47.790;9.620;2023-03-04T02:25:27;-2.50;99.90
19242;DHT22;9755;47.790;9.620;2023-03-04T02:27:58;-2.30;99.90
19242;DHT22;9755;47.790;9.620;2023-03-04T02:30:25;-2.10;99.90
19242;DHT22;9755;47.790;9.620;2023-03-04T02:32:52;-1.90;99.90
19242;DHT22;9755;47.790;9.620;2023-03-04T02:35:20;-1.80;99.90
19242;DHT22;9755;47.790;9.620;2023-03-04T02:37:47;-1.80;99.90
19242;DHT22;9755;47.790;9.620;2023-03-04T02:40:18;-1.60;99.90
19242;DHT22;9755;47.790;9.620;2023-03-04T02:42:48;-1.60;99.90
19242;DHT22;9755;47.790;9.620;2023-03-04T02:45:38;-1.70;99.90
19242;DHT22;9755;47.790;9.620;2023-03-04T02:48:06;-1.70;99.90
19242;DHT22;9755;47.790;9.620;2023-03-04T02:50:36;-1.90;99.90
19242;DHT22;9755;47.790;9.620;2023-03-04T02:53:04;-1.90;99.90
19242;DHT22;9755;47.790;9.620;2023-03-04T02:55:31;-2.00;99.90
19242;DHT22;9755;47.790;9.620;2023-03-04T02:57:58;-2.20;99.90
19242;DHT22;9755;47.790;9.620;2023-03-04T03:00:26;-2.40;99.90
19242;DHT22;9755;47.790;9.620;2023-03-04T03:02:54;-2.50;99.90
19242;DHT22;9755;47.790;9.620;2023-03-04T03:05:23;-2.60;99.90
19242;DHT22;9755;47.790;9.620;2023-03-04T03:07:51;-2.70;99.90
19242;DHT22;9755;47.790;9.620;2023-03-04T03:10:19;-2.70;99.90
19242;DHT22;9755;47.790;9.620;2023-03-04T03:12:46;-2.50;99.90
19242;DHT22;9755;47.790;9.620;2023-03-04T03:15:14;-2.50;99.90
19242;DHT22;9755;47.790;9.620;2023-03-04T03:17:42;-2.40;99.90
19242;DHT22;9755;47.790;9.620;2023-03-04T03:20:12;-2.40;99.90
19242;DHT22;9755;47.790;9.620;2023-03-04T03:22:39;-2.30;99.90
19242;DHT22;9755;47.790;9.620;2023-03-04T03:25:08;-2.30;99.90
19242;DHT22;9755;47.790;9.620;2023-03-04T03:27:36;-2.50;99.90
19242;DHT22;9755;47.790;9.620;2023-03-04T03:30:04;-2.70;99.90
19242;DHT22;9755;47.790;9.620;2023-03-04T03:32:31;-2.80;99.90
19242;DHT22;9755;47.790;9.620;2023-03-04T03:34:58;-2.70;99.90
19242;DHT22;9755;47.790;9.620;2023-03-04T03:37:27;-2.90;99.90
19242;DHT22;9755;47.790;9.620;2023-03-04T03:39:54;-2.90;99.90
19242;DHT22;9755;47.790;9.620;2023-03-04T03:42:21;-2.90;99.90
19242;DHT22;9755;47.790;9.620;2023-03-04T03:44:48;-2.90;99.90
19242;DHT22;9755;47.790;9.620;2023-03-04T03:47:15;-2.80;99.90
19242;DHT22;9755;47.790;9.620;2023-03-04T03:49:42;-2.60;99.90
19242;DHT22;9755;47.790;9.620;2023-03-04T03:52:09;-2.50;99.90
19242;DHT22;9755;47.790;9.620;2023-03-04T03:54:38;-2.50;99.90
19242;DHT22;9755;47.790;9.620;2023-03-04T03:57:05;-2.50;99.90
19242;DHT22;9755;47.790;9.620;2023-03-04T03:59:32;-2.50;99.90
19242;DHT22;9755;47.790;9.620;2023-03-04T04:01:59;-2.40;99.90
19242;DHT22;9755;47.790;9.620;2023-03-04T04:04:26;-2.40;99.90
19242;DHT22;9755;47.790;9.620;2023-03-04T04:06:53;-2.40;99.90
19242;DHT22;9755;47.790;9.620;2023-03-04T04:09:20;-2.40;99.90
19242;DHT22;9755;47.790;9.620;2023-03-04T04:11:48;-2.50;99.90
19242;DHT22;9755;47.790;9.620;2023-03-04T04:14:15;-2.60;99.90
19242;DHT22;9755;47.790;9.620;2023-03-04T04:16:42;-2.60;99.90
19242;DHT22;9755;47.790;9.620;2023-03-04T04:19:15;-2.50;99.90
19242;DHT22;9755;47.790;9.620;2023-03-04T04:21:43;-2.60;99.90
19242;DHT22;9755;47.790;9.620;2023-03-04T04:24:10;-2.90;99.90
19242;DHT22;9755;47.790;9.620;2023-03-04T04:26:37;-3.10;99.90
19242;DHT22;9755;47.790;9.620;2023-03-04T04:29:05;-2.90;99.90
19242;DHT22;9755;47.790;9.620;2023-03-04T04:31:32;-3.10;99.90
19242;DHT22;9755;47.790;9.620;2023-03-04T04:33:59;-3.50;99.90
19242;DHT22;9755;47.790;9.620;2023-03-04T04:36:27;-3.70;99.90
19242;DHT22;9755;47.790;9.620;2023-03-04T04:38:54;-3.70;99.90
19242;DHT22;9755;47.790;9.620;2023-03-04T04:41:23;-3.40;99.90
19242;DHT22;9755;47.790;9.620;2023-03-04T04:43:51;-3.30;99.90
19242;DHT22;9755;47.790;9.620;2023-03-04T04:46:20;-3.30;99.90
19242;DHT22;9755;47.790;9.620;2023-03-04T04:48:47;-3.20;99.90
19242;DHT22;9755;47.790;9.620;2023-03-04T04:51:14;-3.10;99.90
19242;DHT22;9755;47.790;9.620;2023-03-04T04:53:41;-2.90;99.90
19242;DHT22;9755;47.790;9.620;2023-03-04T04:56:11;-2.90;99.90
19242;DHT22;9755;47.790;9.620;2023-03-04T04:58:38;-2.90;99.90
19242;DHT22;9755;47.790;9.620;2023-03-04T05:01:05;-2.90;99.90
19242;DHT22;9755;47.790;9.620;2023-03-04T05:03:35;-2.80;99.90
19242;DHT22;9755;47.790;9.620;2023-03-04T05:06:03;-2.70;99.90
19242;DHT22;9755;47.790;9.620;2023-03-04T05:08:30;-2.70;99.90
19242;DHT22;9755;47.790;9.620;2023-03-04T05:10:57;-2.60;99.90
19242;DHT22;9755;47.790;9.620;2023-03-04T05:13:24;-2.80;99.90
19242;DHT22;9755;47.790;9.620;2023-03-04T05:15:52;-3.00;99.90
19242;DHT22;9755;47.790;9.620;2023-03-04T05:18:20;-3.30;99.90
19242;DHT22;9755;47.790;9.620;2023-03-04T05:20:51;-3.40;99.90
19242;DHT22;9755;47.790;9.620;2023-03-04T05:23:18;-3.40;99.90
19242;DHT22;9755;47.790;9.620;2023-03-04T05:25:45;-3.40;99.90
19242;DHT22;9755;47.790;9.620;2023-03-04T05:28:13;-3.20;99.90
19242;DHT22;9755;47.790;9.620;2023-03-04T05:30:42;-3.10;99.90
19242;DHT22;9755;47.790;9.620;2023-03-04T05:33:10;-3.00;99.90
19242;DHT22;9755;47.790;9.620;2023-03-04T05:35:39;-3.00;99.90
19242;DHT22;9755;47.790;9.620;2023-03-04T05:38:10;-3.00;99.90
19242;DHT22;9755;47.790;9.620;2023-03-04T05:40:38;-3.00;99.90
19242;DHT22;9755;47.790;9.620;2023-03-04T05:43:05;-3.00;99.90
19242;DHT22;9755;47.790;9.620;2023-03-04T05:45:33;-3.20;99.90
19242;DHT22;9755;47.790;9.620;2023-03-04T05:48:00;-3.20;99.90
19242;DHT22;9755;47.790;9.620;2023-03-04T05:50:28;-3.20;99.90
19242;DHT22;9755;47.790;9.620;2023-03-04T05:52:56;-3.30;99.90
19242;DHT22;9755;47.790;9.620;2023-03-04T05:55:25;-3.30;99.90
19242;DHT22;9755;47.790;9.620;2023-03-04T05:57:52;-3.50;99.90
19242;DHT22;9755;47.790;9.620;2023-03-04T06:00:19;-3.60;99.90
19242;DHT22;9755;47.790;9.620;2023-03-04T06:02:46;-3.60;99.90
19242;DHT22;9755;47.790;9.620;2023-03-04T06:05:14;-3.60;99.90
19242;DHT22;9755;47.790;9.620;2023-03-04T06:07:41;-3.70;99.90
19242;DHT22;9755;47.790;9.620;2023-03-04T06:10:10;-3.70;99.90
19242;DHT22;9755;47.790;9.620;2023-03-04T06:12:38;-3.80;99.90
19242;DHT22;9755;47.790;9.620;2023-03-04T06:15:07;-3.70;99.90
19242;DHT22;9755;47.790;9.620;2023-03-04T06:17:35;-3.70;99.90
19242;DHT22;9755;47.790;9.620;2023-03-04T06:20:03;-3.70;99.90
19242;DHT22;9755;47.790;9.620;2023-03-04T06:22:31;-3.60;99.90
19242;DHT22;9755;47.790;9.620;2023-03-04T06:24:59;-3.60;99.90
19242;DHT22;9755;47.790;9.620;2023-03-04T06:27:26;-3.50;99.90
19242;DHT22;9755;47.790;9.620;2023-03-04T06:29:54;-3.40;99.90
19242;DHT22;9755;47.790;9.620;2023-03-04T06:32:21;-3.20;99.90
19242;DHT22;9755;47.790;9.620;2023-03-04T06:34:48;-3.00;99.90
19242;DHT22;9755;47.790;9.620;2023-03-04T06:37:15;-2.90;99.90
19242;DHT22;9755;47.790;9.620;2023-03-04T06:39:43;-2.90;99.90
19242;DHT22;9755;47.790;9.620;2023-03-04T06:42:10;-2.80;99.90
19242;DHT22;9755;47.790;9.620;2023-03-04T06:44:37;-2.70;99.90
19242;DHT22;9755;47.790;9.620;2023-03-04T06:47:06;-2.50;99.90
19242;DHT22;9755;47.790;9.620;2023-03-04T06:49:33;-2.30;99.90
19242;DHT22;9755;47.790;9.620;2023-03-04T06:52:00;-2.10;99.90
19242;DHT22;9755;47.790;9.620;2023-03-04T06:54:28;-1.80;99.90
19242;DHT22;9755;47.790;9.620;2023-03-04T06:56:55;-1.60;99.90
19242;DHT22;9755;47.790;9.620;2023-03-04T06:59:22;-1.30;99.90
19242;DHT22;9755;47.790;9.620;2023-03-04T07:01:49;-1.20;99.90
19242;DHT22;9755;47.790;9.620;2023-03-04T07:04:17;-1.10;99.90
19242;DHT22;9755;47.790;9.620;2023-03-04T07:06:45;-1.10;99.90
19242;DHT22;9755;47.790;9.620;2023-03-04T07:09:11;-1.00;99.90
19242;DHT22;9755;47.790;9.620;2023-03-04T07:11:39;-1.00;99.90
19242;DHT22;9755;47.790;9.620;2023-03-04T07:14:06;-0.70;99.90
19242;DHT22;9755;47.790;9.620;2023-03-04T07:16:33;-0.50;99.90
19242;DHT22;9755;47.790;9.620;2023-03-04T07:19:00;-0.40;99.90
19242;DHT22;9755;47.790;9.620;2023-03-04T07:21:29;-0.40;99.90
19242;DHT22;9755;47.790;9.620;2023-03-04T07:23:56;-0.30;99.90
19242;DHT22;9755;47.790;9.620;2023-03-04T07:26:23;-0.40;99.90
19242;DHT22;9755;47.790;9.620;2023-03-04T07:28:50;-0.30;99.90
19242;DHT22;9755;47.790;9.620;2023-03-04T07:31:21;-0.50;99.90
19242;DHT22;9755;47.790;9.620;2023-03-04T07:33:49;-0.60;99.90
19242;DHT22;9755;47.790;9.620;2023-03-04T07:36:17;-0.70;99.90
19242;DHT22;9755;47.790;9.620;2023-03-04T07:38:48;-0.60;99.90
19242;DHT22;9755;47.790;9.620;2023-03-04T07:41:15;-0.60;99.90
19242;DHT22;9755;47.790;9.620;2023-03-04T07:43:43;-0.30;99.90
19242;DHT22;9755;47.790;9.620;2023-03-04T07:46:10;0.20;99.90
19242;DHT22;9755;47.790;9.620;2023-03-04T07:48:37;0.50;99.90
19242;DHT22;9755;47.790;9.620;2023-03-04T07:51:06;1.00;99.90
19242;DHT22;9755;47.790;9.620;2023-03-04T07:53:34;1.60;99.90
19242;DHT22;9755;47.790;9.620;2023-03-04T07:56:04;2.10;99.90
19242;DHT22;9755;47.790;9.620;2023-03-04T07:58:31;2.50;99.90
19242;DHT22;9755;47.790;9.620;2023-03-04T08:00:58;2.90;99.90
19242;DHT22;9755;47.790;9.620;2023-03-04T08:03:27;3.60;99.90
19242;DHT22;9755;47.790;9.620;2023-03-04T08:05:55;4.10;99.90
19242;DHT22;9755;47.790;9.620;2023-03-04T08:08:22;4.70;99.90
19242;DHT22;9755;47.790;9.620;2023-03-04T08:10:49;5.00;99.90
19242;DHT22;9755;47.790;9.620;2023-03-04T08:13:18;5.40;99.90
19242;DHT22;9755;47.790;9.620;2023-03-04T08:15:45;5.70;99.90
19242;DHT22;9755;47.790;9.620;2023-03-04T08:18:12;5.80;99.90
19242;DHT22;9755;47.790;9.620;2023-03-04T08:20:41;6.40;99.90
19242;DHT22;9755;47.790;9.620;2023-03-04T08:23:08;6.70;99.90
19242;DHT22;9755;47.790;9.620;2023-03-04T08:25:38;7.10;99.90
19242;DHT22;9755;47.790;9.620;2023-03-04T08:28:05;6.90;99.90
19242;DHT22;9755;47.790;9.620;2023-03-04T08:30:34;7.00;99.90
19242;DHT22;9755;47.790;9.620;2023-03-04T08:33:02;6.90;99.90
19242;DHT22;9755;47.790;9.620;2023-03-04T08:35:29;7.20;99.90
19242;DHT22;9755;47.790;9.620;2023-03-04T08:37:56;7.90;99.90
19242;DHT22;9755;47.790;9.620;2023-03-04T08:40:23;8.60;99.90
19242;DHT22;9755;47.790;9.620;2023-03-04T08:42:51;9.10;99.90
19242;DHT22;9755;47.790;9.620;2023-03-04T08:45:19;9.20;99.90
19242;DHT22;9755;47.790;9.620;2023-03-04T08:47:47;9.40;99.90
19242;DHT22;9755;47.790;9.620;2023-03-04T08:50:15;9.50;99.90
19242;DHT22;9755;47.790;9.620;2023-03-04T08:52:42;9.90;99.90
19242;DHT22;9755;47.790;9.620;2023-03-04T08:55:09;10.60;99.90
19242;DHT22;9755;47.790;9.620;2023-03-04T08:57:36;11.00;99.90
19242;DHT22;9755;47.790;9.620;2023-03-04T09:00:04;11.20;99.90
19242;DHT22;9755;47.790;9.620;2023-03-04T09:02:31;11.40;97.80
19242;DHT22;9755;47.790;9.620;2023-03-04T09:05:00;10.50;99.90
19242;DHT22;9755;47.790;9.620;2023-03-04T09:07:27;10.20;98.60
19242;DHT22;9755;47.790;9.620;2023-03-04T09:09:54;9.90;99.90
19242;DHT22;9755;47.790;9.620;2023-03-04T09:12:21;10.60;99.80
19242;DHT22;9755;47.790;9.620;2023-03-04T09:14:48;11.40;99.40
19242;DHT22;9755;47.790;9.620;2023-03-04T09:17:15;11.40;97.10
19242;DHT22;9755;47.790;9.620;2023-03-04T09:19:42;11.40;96.60
19242;DHT22;9755;47.790;9.620;2023-03-04T09:22:10;11.60;96.10
19242;DHT22;9755;47.790;9.620;2023-03-04T09:24:37;11.30;95.40
19242;DHT22;9755;47.790;9.620;2023-03-04T09:27:04;11.40;94.90
19242;DHT22;9755;47.790;9.620;2023-03-04T09:29:31;11.60;95.50
19242;DHT22;9755;47.790;9.620;2023-03-04T09:31:58;11.90;94.40
19242;DHT22;9755;47.790;9.620;2023-03-04T09:34:25;12.00;93.70
19242;DHT22;9755;47.790;9.620;2023-03-04T09:36:53;12.10;93.50
19242;DHT22;9755;47.790;9.620;2023-03-04T09:39:21;12.10;93.50
19242;DHT22;9755;47.790;9.620;2023-03-04T09:41:50;12.40;92.70
19242;DHT22;9755;47.790;9.620;2023-03-04T09:44:23;12.40;92.90
19242;DHT22;9755;47.790;9.620;2023-03-04T09:46:52;12.80;92.00
19242;DHT22;9755;47.790;9.620;2023-03-04T09:49:23;12.40;91.90
19242;DHT22;9755;47.790;9.620;2023-03-04T09:51:54;12.80;90.80
19242;DHT22;9755;47.790;9.620;2023-03-04T09:57:39;13.50;88.80
19242;DHT22;9755;47.790;9.620;2023-03-04T10:00:14;14.00;86.60
19242;DHT22;9755;47.790;9.620;2023-03-04T10:05:40;14.50;82.30
19242;DHT22;9755;47.790;9.620;2023-03-04T10:08:18;14.00;82.50
19242;DHT22;9755;47.790;9.620;2023-03-04T10:10:48;13.80;77.00
19242;DHT22;9755;47.790;9.620;2023-03-04T10:13:25;12.10;88.00
19242;DHT22;9755;47.790;9.620;2023-03-04T10:16:09;12.90;88.10
19242;DHT22;9755;47.790;9.620;2023-03-04T10:18:40;13.30;85.20
19242;DHT22;9755;47.790;9.620;2023-03-04T10:21:15;13.20;81.90
19242;DHT22;9755;47.790;9.620;2023-03-04T10:23:45;12.70;84.20
19242;DHT22;9755;47.790;9.620;2023-03-04T10:26:16;12.60;82.30
19242;DHT22;9755;47.790;9.620;2023-03-04T10:28:47;12.60;85.10
19242;DHT22;9755;47.790;9.620;2023-03-04T10:31:19;11.30;87.60
19242;DHT22;9755;47.790;9.620;2023-03-04T10:33:48;11.40;90.00
19242;DHT22;9755;47.790;9.620;2023-03-04T10:36:32;11.40;90.60
19242;DHT22;9755;47.790;9.620;2023-03-04T10:39:06;12.40;89.10
19242;DHT22;9755;47.790;9.620;2023-03-04T10:41:34;12.40;90.10
19242;DHT22;9755;47.790;9.620;2023-03-04T10:44:15;12.60;87.90
19242;DHT22;9755;47.790;9.620;2023-03-04T10:46:44;13.10;88.60
19242;DHT22;9755;47.790;9.620;2023-03-04T10:49:13;12.10;88.10
19242;DHT22;9755;47.790;9.620;2023-03-04T10:51:42;13.00;90.20
19242;DHT22;9755;47.790;9.620;2023-03-04T10:54:21;14.00;85.10
19242;DHT22;9755;47.790;9.620;2023-03-04T10:56:55;14.70;80.90
19242;DHT22;9755;47.790;9.620;2023-03-04T10:59:39;15.00;78.90
19242;DHT22;9755;47.790;9.620;2023-03-04T11:02:20;15.20;73.00
19242;DHT22;9755;47.790;9.620;2023-03-04T11:07:31;15.40;76.30
19242;DHT22;9755;47.790;9.620;2023-03-04T11:10:07;16.30;73.50
19242;DHT22;9755;47.790;9.620;2023-03-04T11:12:34;16.20;69.50
19242;DHT22;9755;47.790;9.620;2023-03-04T11:15:16;15.60;67.90
19242;DHT22;9755;47.790;9.620;2023-03-04T11:17:47;15.90;68.20
19242;DHT22;9755;47.790;9.620;2023-03-04T11:20:22;15.80;68.90
19242;DHT22;9755;47.790;9.620;2023-03-04T11:22:51;15.90;68.50
19242;DHT22;9755;47.790;9.620;2023-03-04T11:25:24;15.10;68.50
19242;DHT22;9755;47.790;9.620;2023-03-04T11:27:54;15.00;73.50
19242;DHT22;9755;47.790;9.620;2023-03-04T11:30:38;14.80;70.60
19242;DHT22;9755;47.790;9.620;2023-03-04T11:33:16;14.30;76.90
19242;DHT22;9755;47.790;9.620;2023-03-04T11:36:04;15.40;71.20
19242;DHT22;9755;47.790;9.620;2023-03-04T11:38:39;15.50;71.00
19242;DHT22;9755;47.790;9.620;2023-03-04T11:41:10;15.40;70.60
19242;DHT22;9755;47.790;9.620;2023-03-04T11:43:42;15.60;73.40
19242;DHT22;9755;47.790;9.620;2023-03-04T11:52:28;14.30;73.80
19242;DHT22;9755;47.790;9.620;2023-03-04T11:55:11;15.70;70.80
19242;DHT22;9755;47.790;9.620;2023-03-04T11:57:49;16.40;67.90
19242;DHT22;9755;47.790;9.620;2023-03-04T12:00:29;16.60;65.20
19242;DHT22;9755;47.790;9.620;2023-03-04T12:03:13;15.60;65.10
19242;DHT22;9755;47.790;9.620;2023-03-04T12:05:45;16.00;65.70
19242;DHT22;9755;47.790;9.620;2023-03-04T12:08:42;15.80;65.90
19242;DHT22;9755;47.790;9.620;2023-03-04T12:11:23;16.10;63.80
19242;DHT22;9755;47.790;9.620;2023-03-04T12:14:04;15.40;64.30
19242;DHT22;9755;47.790;9.620;2023-03-04T12:19:45;16.10;65.00
19242;DHT22;9755;47.790;9.620;2023-03-04T12:22:26;15.50;62.40
19242;DHT22;9755;47.790;9.620;2023-03-04T12:28:16;14.90;68.70
19242;DHT22;9755;47.790;9.620;2023-03-04T12:31:01;15.30;70.20
19242;DHT22;9755;47.790;9.620;2023-03-04T12:33:41;16.20;66.30
19242;DHT22;9755;47.790;9.620;2023-03-04T12:36:18;16.20;62.90
19242;DHT22;9755;47.790;9.620;2023-03-04T12:39:08;16.50;60.70
19242;DHT22;9755;47.790;9.620;2023-03-04T12:41:49;15.00;60.80
19242;DHT22;9755;47.790;9.620;2023-03-04T12:44:18;15.10;67.20
19242;DHT22;9755;47.790;9.620;2023-03-04T12:47:16;15.80;64.70
19242;DHT22;9755;47.790;9.620;2023-03-04T12:49:57;16.10;62.80
19242;DHT22;9755;47.790;9.620;2023-03-04T12:52:37;16.70;61.20
19242;DHT22;9755;47.790;9.620;2023-03-04T13:03:23;16.80;57.50
19242;DHT22;9755;47.790;9.620;2023-03-04T13:06:02;16.90;56.50
19242;DHT22;9755;47.790;9.620;2023-03-04T13:08:37;17.00;56.90
19242;DHT22;9755;47.790;9.620;2023-03-04T13:14:23;16.70;53.10
19242;DHT22;9755;47.790;9.620;2023-03-04T13:16:51;15.50;57.90
19242;DHT22;9755;47.790;9.620;2023-03-04T13:19:49;16.40;55.10
19242;DHT22;9755;47.790;9.620;2023-03-04T13:22:41;16.20;51.30
19242;DHT22;9755;47.790;9.620;2023-03-04T13:25:30;15.50;54.80
19242;DHT22;9755;47.790;9.620;2023-03-04T13:31:18;16.00;53.90
19242;DHT22;9755;47.790;9.620;2023-03-04T13:33:52;15.90;55.10
19242;DHT22;9755;47.790;9.620;2023-03-04T13:36:32;15.40;53.90
19242;DHT22;9755;47.790;9.620;2023-03-04T13:39:02;15.00;55.90
19242;DHT22;9755;47.790;9.620;2023-03-04T13:41:31;15.30;54.40
19242;DHT22;9755;47.790;9.620;2023-03-04T13:44:34;15.30;55.00
19242;DHT22;9755;47.790;9.620;2023-03-04T13:47:15;15.60;55.30
19242;DHT22;9755;47.790;9.620;2023-03-04T13:49:43;15.50;56.10
19242;DHT22;9755;47.790;9.620;2023-03-04T13:52:37;15.30;55.60
19242;DHT22;9755;47.790;9.620;2023-03-04T13:55:30;15.10;57.50
19242;DHT22;9755;47.790;9.620;2023-03-04T13:57:59;15.30;56.10
19242;DHT22;9755;47.790;9.620;2023-03-04T14:00:27;14.80;55.40
19242;DHT22;9755;47.790;9.620;2023-03-04T14:02:56;14.50;54.90
19242;DHT22;9755;47.790;9.620;2023-03-04T14:05:37;13.90;56.40
19242;DHT22;9755;47.790;9.620;2023-03-04T14:08:17;13.90;56.20
19242;DHT22;9755;47.790;9.620;2023-03-04T14:10:44;14.00;56.50
19242;DHT22;9755;47.790;9.620;2023-03-04T14:13:11;14.00;56.50
19242;DHT22;9755;47.790;9.620;2023-03-04T14:15:38;14.10;59.10
19242;DHT22;9755;47.790;9.620;2023-03-04T14:18:06;14.20;56.80
19242;DHT22;9755;47.790;9.620;2023-03-04T14:20:35;14.10;55.20
19242;DHT22;9755;47.790;9.620;2023-03-04T14:23:06;14.10;55.30
19242;DHT22;9755;47.790;9.620;2023-03-04T14:25:48;14.20;55.00
19242;DHT22;9755;47.790;9.620;2023-03-04T14:28:16;14.00;56.70
19242;DHT22;9755;47.790;9.620;2023-03-04T14:30:50;13.80;57.70
19242;DHT22;9755;47.790;9.620;2023-03-04T14:33:22;13.70;57.00
19242;DHT22;9755;47.790;9.620;2023-03-04T14:35:52;13.40;57.60
19242;DHT22;9755;47.790;9.620;2023-03-04T14:38:24;13.20;59.60
19242;DHT22;9755;47.790;9.620;2023-03-04T14:40:53;13.10;64.50
19242;DHT22;9755;47.790;9.620;2023-03-04T14:43:22;13.50;68.20
19242;DHT22;9755;47.790;9.620;2023-03-04T14:45:51;13.50;66.40
19242;DHT22;9755;47.790;9.620;2023-03-04T14:48:21;13.70;66.10
19242;DHT22;9755;47.790;9.620;2023-03-04T14:50:51;13.80;63.80
19242;DHT22;9755;47.790;9.620;2023-03-04T14:53:19;13.60;62.90
19242;DHT22;9755;47.790;9.620;2023-03-04T14:55:57;13.50;65.30
19242;DHT22;9755;47.790;9.620;2023-03-04T14:58:27;13.20;66.30
19242;DHT22;9755;47.790;9.620;2023-03-04T15:01:13;13.00;68.70
19242;DHT22;9755;47.790;9.620;2023-03-04T15:03:43;13.00;70.20
19242;DHT22;9755;47.790;9.620;2023-03-04T15:06:17;13.20;68.50
19242;DHT22;9755;47.790;9.620;2023-03-04T15:08:46;12.90;67.30
19242;DHT22;9755;47.790;9.620;2023-03-04T15:11:22;12.60;70.10
19242;DHT22;9755;47.790;9.620;2023-03-04T15:13:51;12.40;69.50
19242;DHT22;9755;47.790;9.620;2023-03-04T15:16:20;12.40;70.50
19242;DHT22;9755;47.790;9.620;2023-03-04T15:19:00;12.20;71.70
19242;DHT22;9755;47.790;9.620;2023-03-04T15:21:34;12.30;72.20
19242;DHT22;9755;47.790;9.620;2023-03-04T15:24:02;12.40;70.40
19242;DHT22;9755;47.790;9.620;2023-03-04T15:26:30;12.20;71.70
19242;DHT22;9755;47.790;9.620;2023-03-04T15:28:58;12.10;73.00
19242;DHT22;9755;47.790;9.620;2023-03-04T15:31:28;11.90;72.20
19242;DHT22;9755;47.790;9.620;2023-03-04T15:33:55;12.00;74.20
19242;DHT22;9755;47.790;9.620;2023-03-04T15:36:23;11.80;74.40
19242;DHT22;9755;47.790;9.620;2023-03-04T15:38:51;11.70;74.50
19242;DHT22;9755;47.790;9.620;2023-03-04T15:41:21;11.60;75.50
19242;DHT22;9755;47.790;9.620;2023-03-04T15:43:49;11.40;77.10
19242;DHT22;9755;47.790;9.620;2023-03-04T15:46:16;11.40;79.30
19242;DHT22;9755;47.790;9.620;2023-03-04T15:48:43;11.20;78.80
19242;DHT22;9755;47.790;9.620;2023-03-04T15:51:13;11.20;81.50
19242;DHT22;9755;47.790;9.620;2023-03-04T15:53:45;11.10;82.60
19242;DHT22;9755;47.790;9.620;2023-03-04T15:56:15;11.00;85.50
19242;DHT22;9755;47.790;9.620;2023-03-04T15:58:43;10.80;88.00
19242;DHT22;9755;47.790;9.620;2023-03-04T16:01:15;10.80;90.40
19242;DHT22;9755;47.790;9.620;2023-03-04T16:03:42;10.60;92.20
19242;DHT22;9755;47.790;9.620;2023-03-04T16:06:11;10.60;93.60
19242;DHT22;9755;47.790;9.620;2023-03-04T16:08:40;10.30;94.60
19242;DHT22;9755;47.790;9.620;2023-03-04T16:11:13;10.20;95.90
19242;DHT22;9755;47.790;9.620;2023-03-04T16:13:41;10.00;96.10
19242;DHT22;9755;47.790;9.620;2023-03-04T16:16:09;9.90;97.50
19242;DHT22;9755;47.790;9.620;2023-03-04T16:18:36;9.80;97.90
19242;DHT22;9755;47.790;9.620;2023-03-04T16:21:04;9.70;98.50
19242;DHT22;9755;47.790;9.620;2023-03-04T16:23:37;9.70;98.80
19242;DHT22;9755;47.790;9.620;2023-03-04T16:26:20;9.60;94.30
19242;DHT22;9755;47.790;9.620;2023-03-04T16:28:48;9.50;90.00
19242;DHT22;9755;47.790;9.620;2023-03-04T16:31:16;9.20;80.20
19242;DHT22;9755;47.790;9.620;2023-03-04T16:33:44;8.90;79.00
19242;DHT22;9755;47.790;9.620;2023-03-04T16:36:14;8.60;80.20
19242;DHT22;9755;47.790;9.620;2023-03-04T16:38:42;8.50;80.90
19242;DHT22;9755;47.790;9.620;2023-03-04T16:41:12;8.30;81.80
19242;DHT22;9755;47.790;9.620;2023-03-04T16:43:41;8.10;84.30